createdAt,value
2022-11-23T00:01:37.521Z,96454.92
2022-11-23T00:04:10.851Z,96452.77
2022-11-23T00:06:39.577Z,96451.21
2022-11-23T00:09:08.948Z,96444.14
2022-11-23T00:11:37.252Z,96444.42
2022-11-23T00:14:06.375Z,96447.77
2022-11-23T00:16:34.517Z,96446.52
2022-11-23T00:19:03.012Z,96446.60
2022-11-23T00:21:32.622Z,96447.38
2022-11-23T00:24:00.998Z,96447.23
2022-11-23T00:26:29.111Z,96447.92
2022-11-23T00:28:57.848Z,96447.90
2022-11-23T00:31:29.333Z,96445.81
2022-11-23T00:33:58.165Z,96443.33
2022-11-23T00:36:28.066Z,96445.81
2022-11-23T00:38:56.395Z,96446.61
2022-11-23T00:41:27.892Z,96452.16
2022-11-23T00:43:56.157Z,96444.70
2022-11-23T00:46:26.443Z,96439.24
2022-11-23T00:48:56.746Z,96439.71
2022-11-23T00:51:32.215Z,96430.98
2022-11-23T00:54:01.957Z,96425.02
2022-11-23T00:56:31.227Z,96413.38
2022-11-23T00:59:00.887Z,96419.20
2022-11-23T01:01:34.219Z,96418.19
2022-11-23T01:04:04.848Z,96429.52
2022-11-23T01:06:35.361Z,96433.95
2022-11-23T01:09:12.033Z,96427.50
2022-11-23T01:11:40.750Z,96425.75
2022-11-23T01:14:08.642Z,96425.86
2022-11-23T01:16:42.010Z,96423.73
2022-11-23T01:19:13.863Z,96420.96
2022-11-23T01:21:42.875Z,96414.70
2022-11-23T01:24:23.647Z,96404.75
2022-11-23T01:26:53.529Z,96402.39
2022-11-23T01:29:23.164Z,96404.45
2022-11-23T01:31:51.417Z,96411.89
2022-11-23T01:34:19.376Z,96410.60
2022-11-23T01:36:47.469Z,96407.32
2022-11-23T01:39:15.601Z,96398.05
2022-11-23T01:41:45.661Z,96402.23
2022-11-23T01:44:31.910Z,96387.44
2022-11-23T01:47:02.593Z,96384.65
2022-11-23T01:49:39.136Z,96379.57
2022-11-23T01:52:20.336Z,96374.56
2022-11-23T01:54:52.657Z,96375.87
2022-11-23T01:57:31.425Z,96378.28
2022-11-23T02:00:02.342Z,96372.59
2022-11-23T02:02:50.821Z,96372.59
2022-11-23T02:05:21.987Z,96367.33
2022-11-23T02:07:50.227Z,96370.48
2022-11-23T02:10:19.648Z,96364.27
2022-11-23T02:12:47.827Z,96366.10
2022-11-23T02:15:15.874Z,96365.82
2022-11-23T02:17:45.052Z,96377.52
2022-11-23T02:20:16.337Z,96375.20
2022-11-23T02:23:10.422Z,96375.55
2022-11-23T02:25:43.729Z,96370.70
2022-11-23T02:28:25.125Z,96368.50
2022-11-23T02:30:55.148Z,96373.83
2022-11-23T02:33:26.087Z,96373.02
2022-11-23T02:36:01.705Z,96376.98
2022-11-23T02:38:33.448Z,96378.80
2022-11-23T02:41:01.612Z,96372.14
2022-11-23T02:43:29.620Z,96360.42
2022-11-23T02:46:01.920Z,96356.31
2022-11-23T02:48:29.949Z,96366.98
2022-11-23T02:50:57.903Z,96366.38
2022-11-23T02:53:26.350Z,96355.77
2022-11-23T02:55:55.192Z,96347.86
2022-11-23T02:58:25.718Z,96348.48
2022-11-23T03:00:53.759Z,96355.80
2022-11-23T03:03:23.374Z,96346.45
2022-11-23T03:05:51.784Z,96339.61
2022-11-23T03:08:20.523Z,96352.20
2022-11-23T03:10:49.134Z,96351.71
2022-11-23T03:13:17.023Z,96352.97
2022-11-23T03:15:45.588Z,96350.58
2022-11-23T03:18:13.632Z,96341.16
2022-11-23T03:20:42.287Z,96334.71
2022-11-23T03:23:10.313Z,96340.16
2022-11-23T03:25:40.239Z,96339.86
2022-11-23T03:28:08.551Z,96330.62
2022-11-23T03:30:38.001Z,96334.69
2022-11-23T03:33:06.977Z,96338.60
2022-11-23T03:35:36.504Z,96340.64
2022-11-23T03:38:17.366Z,96334.77
2022-11-23T03:40:46.788Z,96335.45
2022-11-23T03:43:23.501Z,96339.55
2022-11-23T03:45:51.692Z,96338.39
2022-11-23T03:48:20.253Z,96332.45
2022-11-23T03:50:48.967Z,96331.44
2022-11-23T03:53:17.040Z,96329.73
2022-11-23T03:55:47.854Z,96337.25
2022-11-23T03:58:16.287Z,96344.37
2022-11-23T04:00:44.551Z,96349.47
2022-11-23T04:03:13.620Z,96357.91
2022-11-23T04:06:16.665Z,96357.71
2022-11-23T04:09:02.516Z,96352.36
2022-11-23T04:11:55.297Z,96346.93
2022-11-23T04:14:23.658Z,96353.61
2022-11-23T04:16:54.402Z,96349.27
2022-11-23T04:19:22.767Z,96351.38
2022-11-23T04:21:51.016Z,96357.56
2022-11-23T04:24:19.631Z,96356.64
2022-11-23T04:26:48.302Z,96359.70
2022-11-23T04:29:16.474Z,96355.89
2022-11-23T04:31:47.650Z,96351.23
2022-11-23T04:34:18.497Z,96356.84
2022-11-23T04:36:46.557Z,96360.77
2022-11-23T04:39:14.748Z,96358.17
2022-11-23T04:41:55.338Z,96354.46
2022-11-23T04:44:24.607Z,96352.52
2022-11-23T04:46:57.188Z,96348.81
2022-11-23T04:49:26.451Z,96349.85
2022-11-23T04:51:56.060Z,96352.31
2022-11-23T04:54:30.062Z,96358.96
2022-11-23T04:56:59.903Z,96362.52
2022-11-23T04:59:28.202Z,96357.98
2022-11-23T05:01:58.536Z,96355.65
2022-11-23T05:04:39.506Z,96357.59
2022-11-23T05:07:07.575Z,96361.05
2022-11-23T05:09:37.455Z,96359.86
2022-11-23T05:12:18.545Z,96357.86
2022-11-23T05:14:47.145Z,96352.83
2022-11-23T05:17:19.805Z,96349.44
2022-11-23T05:19:48.243Z,96346.92
2022-11-23T05:22:16.772Z,96339.91
2022-11-23T05:24:44.888Z,96335.98
2022-11-23T05:27:16.902Z,96333.54
2022-11-23T05:29:45.026Z,96327.70
2022-11-23T05:32:13.408Z,96322.40
2022-11-23T05:34:41.590Z,96322.83
2022-11-23T05:37:11.571Z,96327.71
2022-11-23T05:39:47.931Z,96332.77
2022-11-23T05:42:16.028Z,96332.99
2022-11-23T05:44:44.090Z,96336.42
2022-11-23T05:47:19.530Z,96332.66
2022-11-23T05:49:49.580Z,96329.84
2022-11-23T05:52:18.624Z,96331.29
2022-11-23T05:54:47.395Z,96324.33
2022-11-23T05:57:18.306Z,96321.25
2022-11-23T05:59:47.539Z,96313.42
2022-11-23T06:02:21.700Z,96307.32
2022-11-23T06:04:53.087Z,96307.03
2022-11-23T06:07:26.471Z,96310.13
2022-11-23T06:10:10.191Z,96308.48
2022-11-23T06:12:40.445Z,96307.06
2022-11-23T06:15:17.809Z,96306.85
2022-11-23T06:17:47.710Z,96313.79
2022-11-23T06:20:19.539Z,96321.84
2022-11-23T06:22:55.734Z,96326.52
2022-11-23T06:25:28.831Z,96330.27
2022-11-23T06:28:18.769Z,96330.13
2022-11-23T06:30:48.371Z,96335.06
2022-11-23T06:33:16.439Z,96341.55
2022-11-23T06:36:01.616Z,96340.91
2022-11-23T06:38:38.109Z,96339.81
2022-11-23T06:41:11.661Z,96336.45
2022-11-23T06:43:40.665Z,96336.75
2022-11-23T06:46:11.490Z,96338.55
2022-11-23T06:48:45.836Z,96343.87
2022-11-23T06:51:17.874Z,96345.87
2022-11-23T06:53:46.218Z,96351.66
2022-11-23T06:56:14.882Z,96350.65
2022-11-23T06:58:43.329Z,96348.20
2022-11-23T07:01:17.705Z,96336.73
2022-11-23T07:03:54.985Z,96334.67
2022-11-23T07:06:27.681Z,96333.37
2022-11-23T07:08:58.335Z,96334.20
2022-11-23T07:11:38.844Z,96336.54
2022-11-23T07:14:07.068Z,96329.57
2022-11-23T07:16:39.242Z,96326.05
2022-11-23T07:19:11.186Z,96328.29
2022-11-23T07:21:39.254Z,96329.63
2022-11-23T07:24:07.485Z,96331.74
2022-11-23T07:26:36.610Z,96328.98
2022-11-23T07:29:05.484Z,96326.38
2022-11-23T07:31:33.908Z,96322.84
2022-11-23T07:34:05.937Z,96325.41
2022-11-23T07:36:34.159Z,96328.25
2022-11-23T07:39:02.525Z,96322.41
2022-11-23T07:41:30.952Z,96317.70
2022-11-23T07:44:22.868Z,96304.04
2022-11-23T07:46:54.129Z,96309.48
2022-11-23T07:49:22.131Z,96313.84
2022-11-23T07:51:50.343Z,96307.70
2022-11-23T07:54:23.669Z,96297.42
2022-11-23T07:56:52.153Z,96297.23
2022-11-23T07:59:20.613Z,96296.86
2022-11-23T08:01:57.035Z,96300.90
2022-11-23T08:04:27.843Z,96292.63
2022-11-23T08:06:57.913Z,96290.45
2022-11-23T08:09:26.444Z,96298.19
2022-11-23T08:11:56.699Z,96306.70
2022-11-23T08:14:24.861Z,96303.33
2022-11-23T08:16:53.548Z,96299.30
2022-11-23T08:19:24.473Z,96299.85
2022-11-23T08:21:55.189Z,96306.55
2022-11-23T08:24:23.362Z,96312.19
2022-11-23T08:26:51.681Z,96300.05
2022-11-23T08:29:20.147Z,96292.95
2022-11-23T08:31:51.620Z,96305.29
2022-11-23T08:34:20.847Z,96306.70
2022-11-23T08:36:49.303Z,96299.34
2022-11-23T08:39:19.888Z,96289.56
2022-11-23T08:41:48.139Z,96291.41
2022-11-23T08:44:16.347Z,96291.56
2022-11-23T08:46:47.131Z,96292.54
2022-11-23T08:49:15.388Z,96291.69
2022-11-23T08:51:49.686Z,96289.63
2022-11-23T08:54:24.265Z,96293.80
2022-11-23T08:56:52.739Z,96293.98
2022-11-23T08:59:20.836Z,96281.98
2022-11-23T09:01:54.127Z,96274.08
2022-11-23T09:04:23.278Z,96277.32
2022-11-23T09:06:54.351Z,96272.90
2022-11-23T09:09:26.196Z,96269.44
2022-11-23T09:11:55.143Z,96264.88
2022-11-23T09:14:24.495Z,96264.01
2022-11-23T09:16:57.170Z,96266.34
2022-11-23T09:19:25.316Z,96269.07
2022-11-23T09:21:56.835Z,96267.47
2022-11-23T09:24:25.914Z,96262.93
2022-11-23T09:26:54.522Z,96264.20
2022-11-23T09:29:23.331Z,96265.89
2022-11-23T09:31:51.517Z,96266.42
2022-11-23T09:34:20.638Z,96264.31
2022-11-23T09:36:49.864Z,96266.73
2022-11-23T09:39:18.563Z,96273.84
2022-11-23T09:41:58.041Z,96274.88
2022-11-23T09:45:00.997Z,96268.07
2022-11-23T09:47:41.461Z,96263.77
2022-11-23T09:50:35.329Z,96265.81
2022-11-23T09:53:13.232Z,96265.67
2022-11-23T09:55:53.882Z,96259.23
2022-11-23T09:58:42.091Z,96252.70
2022-11-23T10:01:19.495Z,96250.73
2022-11-23T10:03:53.700Z,96249.23
2022-11-23T10:06:33.065Z,96250.61
2022-11-23T10:09:37.597Z,96252.30
2022-11-23T10:12:26.930Z,96248.61
2022-11-23T10:14:59.849Z,96239.84
2022-11-23T10:18:08.600Z,96235.69
2022-11-23T10:21:15.499Z,96234.34
2022-11-23T10:24:11.330Z,96233.34
2022-11-23T10:26:44.954Z,96232.70
2022-11-23T10:29:37.098Z,96231.13
2022-11-23T10:32:47.279Z,96231.75
2022-11-23T10:35:35.207Z,96233.84
2022-11-23T10:38:19.332Z,96226.05
2022-11-23T10:41:14.680Z,96220.45
2022-11-23T10:43:51.738Z,96222.36
2022-11-23T10:46:30.833Z,96221.75
2022-11-23T10:49:35.418Z,96212.10
2022-11-23T10:53:44.508Z,96201.40
2022-11-23T10:56:16.434Z,96205.16
2022-11-23T10:58:46.455Z,96202.73
2022-11-23T11:01:19.265Z,96205.65
2022-11-23T11:03:49.405Z,96205.49
2022-11-23T11:06:31.865Z,96211.02
2022-11-23T11:09:19.603Z,96213.23
2022-11-23T11:11:52.317Z,96216.92
2022-11-23T11:14:23.621Z,96217.04
2022-11-23T11:16:58.124Z,96216.17
2022-11-23T11:19:30.110Z,96210.85
2022-11-23T11:22:02.876Z,96204.91
2022-11-23T11:24:38.917Z,96202.86
2022-11-23T11:27:17.681Z,96203.14
2022-11-23T11:29:46.048Z,96198.42
2022-11-23T11:32:21.733Z,96199.14
2022-11-23T11:34:53.025Z,96197.86
2022-11-23T11:37:24.229Z,96195.46
2022-11-23T11:40:01.678Z,96193.95
2022-11-23T11:42:38.982Z,96191.36
2022-11-23T11:45:16.616Z,96188.94
2022-11-23T11:48:19.203Z,96190.52
2022-11-23T11:50:53.925Z,96193.52
2022-11-23T11:53:34.052Z,96191.90
2022-11-23T11:56:16.909Z,96195.33
2022-11-23T11:59:03.309Z,96196.95
2022-11-23T12:01:54.857Z,96197.65
2022-11-23T12:04:55.969Z,96192.61
2022-11-23T12:07:43.223Z,96200.03
2022-11-23T12:10:52.670Z,96203.26
2022-11-23T12:13:31.525Z,96199.33
2022-11-23T12:16:24.430Z,96196.11
2022-11-23T12:19:15.389Z,96195.00
2022-11-23T12:22:02.241Z,96196.33
2022-11-23T12:25:14.463Z,96195.84
2022-11-23T12:28:19.085Z,96190.73
2022-11-23T12:30:51.226Z,96190.60
2022-11-23T12:36:31.730Z,96189.48
2022-11-23T12:39:28.917Z,96189.91
2022-11-23T12:42:40.079Z,96189.38
2022-11-23T12:45:20.685Z,96189.60
2022-11-23T12:48:15.971Z,96187.21
2022-11-23T12:51:12.549Z,96184.19
2022-11-23T12:53:43.903Z,96185.77
2022-11-23T12:56:44.801Z,96182.44
2022-11-23T12:59:14.474Z,96185.23
2022-11-23T13:01:47.820Z,96178.33
2022-11-23T13:04:25.778Z,96177.04
2022-11-23T13:07:28.431Z,96173.36
2022-11-23T13:10:18.087Z,96171.48
2022-11-23T13:12:53.928Z,96169.60
2022-11-23T13:15:52.420Z,96169.27
2022-11-23T13:18:33.072Z,96173.67
2022-11-23T13:21:19.328Z,96172.02
2022-11-23T13:23:48.419Z,96177.08
2022-11-23T13:26:36.144Z,96178.77
2022-11-23T13:29:43.510Z,96179.27
2022-11-23T13:32:43.274Z,96181.08
2022-11-23T13:35:19.345Z,96182.48
2022-11-23T13:37:58.508Z,96187.89
2022-11-23T13:40:27.173Z,96187.66
2022-11-23T13:43:01.936Z,96189.13
2022-11-23T13:46:10.438Z,96183.90
2022-11-23T13:48:56.831Z,96186.11
2022-11-23T13:51:32.016Z,96187.61
2022-11-23T13:54:06.680Z,96191.33
2022-11-23T13:56:44.485Z,96193.02
2022-11-23T13:59:25.313Z,96193.24
2022-11-23T14:02:09.585Z,96194.16
2022-11-23T14:04:39.609Z,96193.54
2022-11-23T14:07:23.524Z,96199.16
2022-11-23T14:09:55.077Z,96203.87
2022-11-23T14:12:49.099Z,96202.01
2022-11-23T14:15:31.049Z,96209.50
2022-11-23T14:18:32.952Z,96210.98
2022-11-23T14:21:14.976Z,96216.27
2022-11-23T14:24:27.616Z,96213.90
2022-11-23T14:27:45.757Z,96213.50
2022-11-23T14:30:02.902Z,96214.47
2022-11-23T14:33:14.823Z,96212.20
2022-11-23T14:35:52.387Z,96214.02
2022-11-23T14:38:20.775Z,96218.02
2022-11-23T14:41:09.971Z,96220.79
2022-11-23T14:43:41.785Z,96219.02
2022-11-23T14:46:20.971Z,96220.97
2022-11-23T14:48:49.923Z,96221.46
2022-11-23T14:51:23.850Z,96227.42
2022-11-23T14:53:56.346Z,96232.44
2022-11-23T14:56:32.618Z,96240.20
2022-11-23T14:59:29.040Z,96242.70
2022-11-23T15:02:15.072Z,96248.51
2022-11-23T15:05:02.324Z,96250.56
2022-11-23T15:07:39.326Z,96257.52
2022-11-23T15:10:47.512Z,96257.87
2022-11-23T15:13:24.680Z,96258.21
2022-11-23T15:15:55.961Z,96261.99
2022-11-23T15:18:43.106Z,96263.59
2022-11-23T15:21:12.193Z,96266.50
2022-11-23T15:23:41.227Z,96266.86
2022-11-23T15:26:46.877Z,96270.70
2022-11-23T15:29:31.350Z,96278.99
2022-11-23T15:32:28.550Z,96283.57
2022-11-23T15:34:50.157Z,96283.80
2022-11-23T15:37:19.031Z,96285.48
2022-11-23T15:39:49.602Z,96286.85
2022-11-23T15:42:21.192Z,96286.58
2022-11-23T15:44:51.212Z,96289.46
2022-11-23T15:47:27.956Z,96288.70
2022-11-23T15:50:09.671Z,96287.88
2022-11-23T15:52:39.844Z,96287.50
2022-11-23T15:55:14.111Z,96283.55
2022-11-23T15:57:43.245Z,96287.05
2022-11-23T16:00:25.495Z,96286.71
2022-11-23T16:03:30.898Z,96288.23
2022-11-23T16:06:34.504Z,96282.36
2022-11-23T16:09:07.382Z,96274.84
2022-11-23T16:11:46.805Z,96270.89
2022-11-23T16:14:20.828Z,96266.04
2022-11-23T16:17:04.875Z,96273.79
2022-11-23T16:19:34.705Z,96284.52
2022-11-23T16:22:06.289Z,96288.13
2022-11-23T16:24:36.396Z,96288.55
2022-11-23T16:27:15.588Z,96289.38
2022-11-23T16:29:44.173Z,96287.55
2022-11-23T16:32:24.077Z,96286.16
2022-11-23T16:34:52.999Z,96287.80
2022-11-23T16:37:22.738Z,96283.92
2022-11-23T16:39:50.751Z,96289.45
2022-11-23T16:42:21.321Z,96296.85
2022-11-23T16:44:49.374Z,96301.77
2022-11-23T16:47:23.578Z,96304.94
2022-11-23T16:49:54.725Z,96314.34
2022-11-23T16:52:23.904Z,96318.48
2022-11-23T16:54:53.014Z,96317.86
2022-11-23T16:57:30.694Z,96316.31
2022-11-23T17:00:04.682Z,96315.09
2022-11-23T17:02:34.862Z,96313.77
2022-11-23T17:05:04.428Z,96312.17
2022-11-23T17:07:32.703Z,96309.16
2022-11-23T17:10:02.321Z,96307.03
2022-11-23T17:12:33.002Z,96303.98
2022-11-23T17:15:02.031Z,96308.10
2022-11-23T17:17:30.676Z,96312.50
2022-11-23T17:20:04.581Z,96313.80
2022-11-23T17:22:32.939Z,96316.65
2022-11-23T17:25:06.894Z,96317.31
2022-11-23T17:27:42.008Z,96315.55
2022-11-23T17:30:22.023Z,96309.46
2022-11-23T17:32:51.271Z,96312.64
2022-11-23T17:35:19.748Z,96318.13
2022-11-23T17:37:47.750Z,96319.73
2022-11-23T17:40:21.629Z,96320.42
2022-11-23T17:42:49.945Z,96320.17
2022-11-23T17:45:18.080Z,96319.13
2022-11-23T17:47:49.043Z,96319.57
2022-11-23T17:50:22.322Z,96318.43
2022-11-23T17:52:51.298Z,96317.90
2022-11-23T17:55:20.389Z,96321.46
2022-11-23T17:57:48.532Z,96318.41
2022-11-23T18:00:22.301Z,96316.75
2022-11-23T18:02:52.179Z,96317.38
2022-11-23T18:05:22.056Z,96317.93
2022-11-23T18:07:51.387Z,96315.94
2022-11-23T18:10:19.781Z,96316.61
2022-11-23T18:12:48.503Z,96319.75
2022-11-23T18:15:18.801Z,96316.88
2022-11-23T18:17:47.369Z,96310.73
2022-11-23T18:20:18.429Z,96313.23
2022-11-23T18:22:46.495Z,96314.59
2022-11-23T18:25:15.366Z,96317.36
2022-11-23T18:27:43.962Z,96319.97
2022-11-23T18:30:15.221Z,96319.81
2022-11-23T18:32:43.260Z,96323.30
2022-11-23T18:35:11.352Z,96326.95
2022-11-23T18:37:39.663Z,96332.59
2022-11-23T18:40:08.179Z,96333.34
2022-11-23T18:42:37.537Z,96332.91
2022-11-23T18:45:09.066Z,96335.86
2022-11-23T18:47:37.660Z,96338.46
2022-11-23T18:50:07.169Z,96341.70
2022-11-23T18:52:36.603Z,96347.11
2022-11-23T18:55:05.580Z,96351.08
2022-11-23T18:57:34.164Z,96349.33
2022-11-23T19:00:06.203Z,96348.02
2022-11-23T19:02:34.843Z,96354.66
2022-11-23T19:05:03.011Z,96359.23
2022-11-23T19:07:31.216Z,96368.46
2022-11-23T19:09:59.208Z,96370.77
2022-11-23T19:12:27.698Z,96372.69
2022-11-23T19:14:55.888Z,96369.95
2022-11-23T19:17:24.314Z,96372.59
2022-11-23T19:19:52.396Z,96379.55
2022-11-23T19:22:20.351Z,96379.05
2022-11-23T19:24:48.601Z,96380.77
2022-11-23T19:27:17.552Z,96384.17
2022-11-23T19:29:45.752Z,96383.59
2022-11-23T19:32:13.667Z,96390.55
2022-11-23T19:34:44.226Z,96388.98
2022-11-23T19:37:12.197Z,96386.91
2022-11-23T19:39:40.214Z,96385.66
2022-11-23T19:42:11.011Z,96381.05
2022-11-23T19:44:39.127Z,96382.90
2022-11-23T19:47:14.519Z,96385.90
2022-11-23T19:49:45.266Z,96393.30
2022-11-23T19:52:13.300Z,96399.00
2022-11-23T19:54:42.162Z,96401.62
2022-11-23T19:57:11.189Z,96399.14
2022-11-23T19:59:39.265Z,96398.30
2022-11-23T20:02:08.900Z,96395.86
2022-11-23T20:04:38.565Z,96394.83
2022-11-23T20:07:07.233Z,96399.45
2022-11-23T20:09:35.928Z,96401.33
2022-11-23T20:12:04.630Z,96408.30
2022-11-23T20:14:32.616Z,96413.01
2022-11-23T20:17:01.676Z,96416.02
2022-11-23T20:19:30.092Z,96415.64
2022-11-23T20:21:58.528Z,96419.14
2022-11-23T20:24:29.523Z,96421.36
2022-11-23T20:26:57.702Z,96423.20
2022-11-23T20:29:25.997Z,96422.23
2022-11-23T20:31:54.226Z,96432.37
2022-11-23T20:34:26.157Z,96444.56
2022-11-23T20:36:55.262Z,96450.52
2022-11-23T20:39:25.771Z,96450.73
2022-11-23T20:41:54.029Z,96451.36
2022-11-23T20:44:23.775Z,96455.88
2022-11-23T20:47:07.312Z,96449.44
2022-11-23T20:49:37.952Z,96448.92
2022-11-23T20:52:06.148Z,96451.39
2022-11-23T20:54:34.420Z,96450.08
2022-11-23T20:57:02.756Z,96456.13
2022-11-23T20:59:33.031Z,96458.70
2022-11-23T21:02:02.632Z,96460.17
2022-11-23T21:04:30.861Z,96458.18
2022-11-23T21:06:59.159Z,96454.59
2022-11-23T21:09:28.110Z,96450.48
2022-11-23T21:12:14.723Z,96449.87
2022-11-23T21:14:43.152Z,96459.48
2022-11-23T21:17:11.312Z,96463.02
2022-11-23T21:19:39.694Z,96462.33
2022-11-23T21:22:13.746Z,96460.47
2022-11-23T21:24:42.352Z,96459.91
2022-11-23T21:27:13.435Z,96461.97
2022-11-23T21:29:44.169Z,96461.28
2022-11-23T21:32:17.284Z,96459.55
2022-11-23T21:34:45.775Z,96459.74
2022-11-23T21:37:13.830Z,96462.19
2022-11-23T21:39:42.020Z,96466.64
2022-11-23T21:42:10.391Z,96460.39
2022-11-23T21:44:39.295Z,96454.66
2022-11-23T21:47:07.361Z,96449.70
2022-11-23T21:49:35.445Z,96457.52
2022-11-23T21:52:03.564Z,96467.11
2022-11-23T21:54:32.832Z,96464.81
2022-11-23T21:57:01.364Z,96467.80
2022-11-23T21:59:29.350Z,96467.56
2022-11-23T22:01:58.745Z,96466.88
2022-11-23T22:04:30.378Z,96464.52
2022-11-23T22:06:58.624Z,96476.19
2022-11-23T22:09:27.230Z,96478.90
2022-11-23T22:11:55.147Z,96482.88
2022-11-23T22:14:23.407Z,96483.83
2022-11-23T22:16:53.582Z,96485.31
2022-11-23T22:19:21.570Z,96487.81
2022-11-23T22:21:49.596Z,96487.92
2022-11-23T22:24:19.684Z,96483.84
2022-11-23T22:26:48.625Z,96482.61
2022-11-23T22:29:17.012Z,96479.88
2022-11-23T22:31:45.123Z,96479.45
2022-11-23T22:34:14.273Z,96486.00
2022-11-23T22:36:42.284Z,96487.79
2022-11-23T22:39:10.798Z,96491.36
2022-11-23T22:41:39.305Z,96489.52
2022-11-23T22:44:09.711Z,96489.42
2022-11-23T22:46:39.026Z,96492.19
2022-11-23T22:49:07.402Z,96489.70
2022-11-23T22:51:35.820Z,96488.31
2022-11-23T22:54:03.890Z,96490.46
2022-11-23T22:56:32.323Z,96493.63
2022-11-23T22:59:00.334Z,96494.00
2022-11-23T23:01:30.489Z,96495.10
2022-11-23T23:04:03.194Z,96490.52
2022-11-23T23:06:35.084Z,96484.14
2022-11-23T23:09:07.002Z,96477.69
2022-11-23T23:11:36.048Z,96483.66
2022-11-23T23:14:04.493Z,96479.77
2022-11-23T23:16:32.684Z,96475.28
2022-11-23T23:19:01.216Z,96477.94
2022-11-23T23:21:30.010Z,96475.89
2022-11-23T23:24:01.559Z,96475.46
2022-11-23T23:26:30.026Z,96477.16
2022-11-23T23:29:00.611Z,96476.75
2022-11-23T23:31:30.215Z,96473.52
2022-11-23T23:33:59.864Z,96470.48
2022-11-23T23:36:28.619Z,96468.94
2022-11-23T23:38:58.105Z,96471.42
2022-11-23T23:41:26.110Z,96475.61
2022-11-23T23:43:54.063Z,96478.02
2022-11-23T23:46:22.508Z,96478.88
2022-11-23T23:48:50.569Z,96478.06
2022-11-23T23:51:24.402Z,96476.86
2022-11-23T23:53:52.863Z,96478.42
2022-11-23T23:56:24.079Z,96482.77
2022-11-23T23:58:54.448Z,96486.56
